PBD859 UUWW-LTAI
Flight info
| Callsign | PBD859 |
|---|---|
| Flight time | N/A |
| Altitude | 36000 |
| Route | SUNUN3Z SUNUN M869 OPOKA/N0471F340 DCT LAUGA DCT VABER DCT UNPEG DCT PODAN DCT KEKED DCT NARKA DCT DVA DCT TIMUR L606 ADORU UG80 EKI UL606 CRD UL854 KOZLU |
| Aircraft | B738/M-SDE2E3FGHIRWXY/LB1 |
Departure
| Time | 2026-04-28 11:35 |
|---|---|
| Airport | Vnukovo International Airport (UUWW) |
Arrival
| Time | N/A |
|---|---|
| Airport | Antalya International Airport (LTAI) |
| Time | Latitude | Longitude | Altitude | Speed | Heading |
|---|---|---|---|---|---|
| 2026-04-28 11:12 | 55.60037 | 37.27923 | 694 ft | 0 kts | 24° |
| 2026-04-28 11:30 | 55.60055 | 37.27938 | 685 ft | 2 kts | 25° |
| 2026-04-28 11:30 | 55.60071 | 37.27955 | 694 ft | 4 kts | 37° |
| 2026-04-28 11:31 | 55.60081 | 37.28024 | 691 ft | 7 kts | 96° |
| 2026-04-28 11:31 | 55.60075 | 37.28111 | 694 ft | 7 kts | 94° |
| 2026-04-28 11:31 | 55.60077 | 37.28196 | 694 ft | 7 kts | 84° |
| 2026-04-28 11:31 | 55.60082 | 37.28290 | 690 ft | 10 kts | 87° |
| 2026-04-28 11:32 | 55.60092 | 37.28412 | 694 ft | 10 kts | 68° |
| 2026-04-28 11:32 | 55.60134 | 37.28507 | 692 ft | 10 kts | 47° |
| 2026-04-28 11:32 | 55.60180 | 37.28592 | 693 ft | 10 kts | 47° |
| 2026-04-28 11:32 | 55.60208 | 37.28689 | 694 ft | 9 kts | 103° |
| 2026-04-28 11:33 | 55.60170 | 37.28782 | 691 ft | 9 kts | 132° |
| 2026-04-28 11:33 | 55.60116 | 37.28861 | 690 ft | 12 kts | 151° |
| 2026-04-28 11:33 | 55.60040 | 37.28903 | 691 ft | 11 kts | 166° |
| 2026-04-28 11:33 | 55.59965 | 37.28936 | 691 ft | 11 kts | 166° |
| 2026-04-28 11:34 | 55.59893 | 37.28967 | 691 ft | 11 kts | 166° |
| 2026-04-28 11:34 | 55.59821 | 37.28990 | 691 ft | 10 kts | 186° |
| 2026-04-28 11:34 | 55.59774 | 37.28904 | 690 ft | 10 kts | 244° |
| 2026-04-28 11:34 | 55.59701 | 37.28582 | 688 ft | 58 kts | 248° |
| 2026-04-28 11:35 | 55.59474 | 37.27579 | 689 ft | 116 kts | 248° |
| 2026-04-28 11:35 | 55.59129 | 37.25968 | 730 ft | 161 kts | 251° |
| 2026-04-28 11:35 | 55.58734 | 37.24142 | 1635 ft | 155 kts | 251° |
| 2026-04-28 11:35 | 55.58169 | 37.22596 | 2700 ft | 157 kts | 230° |
| 2026-04-28 11:36 | 55.57255 | 37.21353 | 3144 ft | 177 kts | 238° |
| 2026-04-28 11:36 | 55.56539 | 37.19501 | 3440 ft | 191 kts | 248° |
| 2026-04-28 11:36 | 55.55819 | 37.17465 | 3975 ft | 199 kts | 246° |
| 2026-04-28 11:36 | 55.55040 | 37.15376 | 4593 ft | 204 kts | 248° |
| 2026-04-28 11:37 | 55.54130 | 37.13399 | 4962 ft | 220 kts | 230° |
| 2026-04-28 11:37 | 55.52902 | 37.11721 | 4991 ft | 222 kts | 229° |
| 2026-04-28 11:37 | 55.51678 | 37.10015 | 5212 ft | 227 kts | 229° |
| 2026-04-28 11:37 | 55.50438 | 37.08259 | 5871 ft | 231 kts | 229° |
| 2026-04-28 11:38 | 55.49134 | 37.06516 | 5968 ft | 243 kts | 219° |
| 2026-04-28 11:38 | 55.47546 | 37.05143 | 6142 ft | 271 kts | 212° |
| 2026-04-28 11:38 | 55.45799 | 37.03816 | 6906 ft | 273 kts | 211° |
| 2026-04-28 11:38 | 55.44060 | 37.02483 | 7778 ft | 273 kts | 212° |
| 2026-04-28 11:39 | 55.42317 | 37.01114 | 8535 ft | 276 kts | 212° |
| 2026-04-28 11:39 | 55.40520 | 36.99841 | 9216 ft | 286 kts | 199° |
| 2026-04-28 11:39 | 55.38486 | 36.99632 | 9909 ft | 297 kts | 185° |
| 2026-04-28 11:39 | 55.36406 | 36.99694 | 10580 ft | 301 kts | 185° |
| 2026-04-28 11:40 | 55.34304 | 36.99727 | 11227 ft | 304 kts | 185° |
| 2026-04-28 11:40 | 55.32204 | 36.99740 | 11920 ft | 307 kts | 185° |
| 2026-04-28 11:40 | 55.30054 | 36.99744 | 12611 ft | 311 kts | 185° |
| 2026-04-28 11:40 | 55.27871 | 36.99757 | 13294 ft | 316 kts | 185° |
| 2026-04-28 11:41 | 55.25674 | 36.99269 | 13580 ft | 325 kts | 204° |
| 2026-04-28 11:41 | 55.23705 | 36.97313 | 13726 ft | 330 kts | 227° |
| 2026-04-28 11:41 | 55.22308 | 36.94105 | 13861 ft | 336 kts | 249° |
| 2026-04-28 11:41 | 55.21722 | 36.90125 | 14027 ft | 342 kts | 271° |
| 2026-04-28 11:42 | 55.22040 | 36.86072 | 14402 ft | 344 kts | 291° |
| 2026-04-28 11:42 | 55.23215 | 36.82438 | 14936 ft | 344 kts | 310° |
| 2026-04-28 11:42 | 55.25038 | 36.79723 | 15460 ft | 349 kts | 327° |
| 2026-04-28 11:42 | 55.27170 | 36.77637 | 15982 ft | 353 kts | 331° |
| 2026-04-28 11:43 | 55.29372 | 36.75674 | 16482 ft | 356 kts | 332° |
| 2026-04-28 11:43 | 55.31601 | 36.73731 | 16995 ft | 360 kts | 332° |
| 2026-04-28 11:43 | 55.33854 | 36.71758 | 17478 ft | 363 kts | 332° |
| 2026-04-28 11:43 | 55.36118 | 36.69752 | 18028 ft | 366 kts | 332° |
| 2026-04-28 11:44 | 55.38395 | 36.67710 | 18451 ft | 369 kts | 332° |
| 2026-04-28 11:44 | 55.40656 | 36.65665 | 18915 ft | 371 kts | 332° |
| 2026-04-28 11:44 | 55.42955 | 36.63571 | 19328 ft | 374 kts | 332° |
| 2026-04-28 11:44 | 55.45272 | 36.61452 | 19777 ft | 377 kts | 332° |
| 2026-04-28 11:45 | 55.47607 | 36.59310 | 20210 ft | 379 kts | 332° |
| 2026-04-28 11:45 | 55.49950 | 36.57156 | 20629 ft | 381 kts | 332° |
| 2026-04-28 11:45 | 55.52310 | 36.54982 | 21034 ft | 384 kts | 332° |
| 2026-04-28 11:45 | 55.54689 | 36.52787 | 21442 ft | 386 kts | 332° |
| 2026-04-28 11:46 | 55.55459 | 36.52076 | 21575 ft | 387 kts | 332° |
| 2026-04-28 11:46 | 55.61666 | 36.46334 | 22611 ft | 393 kts | 332° |
| 2026-04-28 11:46 | 55.64095 | 36.44081 | 22983 ft | 396 kts | 332° |
| 2026-04-28 11:47 | 55.66541 | 36.41808 | 23375 ft | 398 kts | 333° |
| 2026-04-28 11:47 | 55.68997 | 36.39521 | 23667 ft | 400 kts | 332° |
| 2026-04-28 11:47 | 55.71280 | 36.36671 | 23921 ft | 405 kts | 317° |
| 2026-04-28 11:47 | 55.73094 | 36.32840 | 24228 ft | 409 kts | 305° |
| 2026-04-28 11:48 | 55.74433 | 36.28367 | 24529 ft | 413 kts | 295° |
| 2026-04-28 11:48 | 55.75496 | 36.23690 | 24813 ft | 416 kts | 294° |
| 2026-04-28 11:48 | 55.76557 | 36.18899 | 25078 ft | 418 kts | 294° |
| 2026-04-28 11:48 | 55.77560 | 36.14033 | 25368 ft | 421 kts | 288° |
| 2026-04-28 11:49 | 55.78037 | 36.08892 | 25783 ft | 425 kts | 276° |
| 2026-04-28 11:49 | 55.77965 | 36.03609 | 26150 ft | 431 kts | 266° |
| 2026-04-28 11:49 | 55.77347 | 35.98358 | 26453 ft | 438 kts | 257° |
| 2026-04-28 11:49 | 55.76310 | 35.93258 | 26839 ft | 442 kts | 248° |
| 2026-04-28 11:50 | 55.74859 | 35.88405 | 27154 ft | 447 kts | 244° |
| 2026-04-28 11:50 | 55.73317 | 35.83674 | 27439 ft | 450 kts | 243° |
| 2026-04-28 11:50 | 55.71719 | 35.78878 | 27733 ft | 453 kts | 242° |
| 2026-04-28 11:50 | 55.70108 | 35.74066 | 28036 ft | 455 kts | 242° |
| 2026-04-28 11:51 | 55.68494 | 35.69226 | 28337 ft | 457 kts | 243° |
| 2026-04-28 11:51 | 55.66879 | 35.64356 | 28637 ft | 459 kts | 243° |
| 2026-04-28 11:51 | 55.65268 | 35.59470 | 28932 ft | 461 kts | 243° |
| 2026-04-28 11:51 | 55.63653 | 35.54564 | 29254 ft | 461 kts | 243° |
| 2026-04-28 11:52 | 55.62039 | 35.49653 | 29642 ft | 461 kts | 242° |
| 2026-04-28 11:52 | 55.60450 | 35.44827 | 30006 ft | 460 kts | 243° |
| 2026-04-28 11:52 | 55.58838 | 35.39940 | 30287 ft | 460 kts | 243° |
| 2026-04-28 11:52 | 55.57225 | 35.35059 | 30570 ft | 460 kts | 242° |
| 2026-04-28 11:53 | 55.55609 | 35.30179 | 30856 ft | 460 kts | 243° |
| 2026-04-28 11:53 | 55.53992 | 35.25304 | 31165 ft | 460 kts | 242° |
| 2026-04-28 11:53 | 55.52375 | 35.20440 | 31476 ft | 459 kts | 242° |
| 2026-04-28 11:53 | 55.50759 | 35.15591 | 31787 ft | 458 kts | 242° |